sensor_id;sensor_type;location;lat;lon;timestamp;temperature;humidity
23267;DHT22;11802;53.160;8.214;2024-01-11T00:00:38;-5.20;99.90
23267;DHT22;11802;53.160;8.214;2024-01-11T00:03:04;-5.20;99.90
23267;DHT22;11802;53.160;8.214;2024-01-11T00:05:29;-5.20;99.90
23267;DHT22;11802;53.160;8.214;2024-01-11T00:07:55;-5.20;99.90
23267;DHT22;11802;53.160;8.214;2024-01-11T00:10:21;-5.10;99.90
23267;DHT22;11802;53.160;8.214;2024-01-11T00:12:46;-5.10;99.90
23267;DHT22;11802;53.160;8.214;2024-01-11T00:15:12;-5.10;99.90
23267;DHT22;11802;53.160;8.214;2024-01-11T00:17:38;-5.10;99.90
23267;DHT22;11802;53.160;8.214;2024-01-11T00:20:04;-5.10;99.90
23267;DHT22;11802;53.160;8.214;2024-01-11T00:22:30;-5.10;99.90
23267;DHT22;11802;53.160;8.214;2024-01-11T00:24:56;-5.10;99.90
23267;DHT22;11802;53.160;8.214;2024-01-11T00:27:22;-5.00;99.90
23267;DHT22;11802;53.160;8.214;2024-01-11T00:29:47;-5.00;99.90
23267;DHT22;11802;53.160;8.214;2024-01-11T00:32:13;-4.90;99.90
23267;DHT22;11802;53.160;8.214;2024-01-11T00:34:38;-4.90;99.90
23267;DHT22;11802;53.160;8.214;2024-01-11T00:37:04;-4.90;99.90
23267;DHT22;11802;53.160;8.214;2024-01-11T00:39:29;-4.80;99.90
23267;DHT22;11802;53.160;8.214;2024-01-11T00:41:55;-4.90;99.90
23267;DHT22;11802;53.160;8.214;2024-01-11T00:44:21;-4.80;99.90
23267;DHT22;11802;53.160;8.214;2024-01-11T00:46:46;-4.90;99.90
23267;DHT22;11802;53.160;8.214;2024-01-11T00:49:12;-4.90;99.90
23267;DHT22;11802;53.160;8.214;2024-01-11T00:51:37;-5.00;99.90
23267;DHT22;11802;53.160;8.214;2024-01-11T00:54:03;-4.90;99.90
23267;DHT22;11802;53.160;8.214;2024-01-11T00:56:29;-4.90;99.90
23267;DHT22;11802;53.160;8.214;2024-01-11T00:58:54;-4.90;99.90
23267;DHT22;11802;53.160;8.214;2024-01-11T01:01:20;-4.90;99.90
23267;DHT22;11802;53.160;8.214;2024-01-11T01:03:45;-4.90;99.90
23267;DHT22;11802;53.160;8.214;2024-01-11T01:06:11;-4.90;99.90
23267;DHT22;11802;53.160;8.214;2024-01-11T01:08:36;-5.00;99.90
23267;DHT22;11802;53.160;8.214;2024-01-11T01:11:02;-5.00;99.90
23267;DHT22;11802;53.160;8.214;2024-01-11T01:13:28;-5.00;99.90
23267;DHT22;11802;53.160;8.214;2024-01-11T01:15:53;-5.00;99.90
23267;DHT22;11802;53.160;8.214;2024-01-11T01:18:19;-5.00;99.90
23267;DHT22;11802;53.160;8.214;2024-01-11T01:20:44;-4.90;99.90
23267;DHT22;11802;53.160;8.214;2024-01-11T01:23:10;-5.00;99.90
23267;DHT22;11802;53.160;8.214;2024-01-11T01:25:35;-5.00;99.90
23267;DHT22;11802;53.160;8.214;2024-01-11T01:28:01;-5.00;99.90
23267;DHT22;11802;53.160;8.214;2024-01-11T01:30:27;-5.00;99.90
23267;DHT22;11802;53.160;8.214;2024-01-11T01:32:53;-4.90;99.90
23267;DHT22;11802;53.160;8.214;2024-01-11T01:35:19;-4.90;99.90
23267;DHT22;11802;53.160;8.214;2024-01-11T01:37:45;-4.90;99.90
23267;DHT22;11802;53.160;8.214;2024-01-11T01:40:13;-4.80;99.90
23267;DHT22;11802;53.160;8.214;2024-01-11T01:42:43;-4.80;99.90
23267;DHT22;11802;53.160;8.214;2024-01-11T01:45:09;-4.80;99.90
23267;DHT22;11802;53.160;8.214;2024-01-11T01:47:35;-4.90;99.90
23267;DHT22;11802;53.160;8.214;2024-01-11T01:50:02;-4.90;99.90
23267;DHT22;11802;53.160;8.214;2024-01-11T01:52:28;-4.90;99.90
23267;DHT22;11802;53.160;8.214;2024-01-11T01:54:56;-4.90;99.90
23267;DHT22;11802;53.160;8.214;2024-01-11T01:57:22;-4.90;99.90
23267;DHT22;11802;53.160;8.214;2024-01-11T01:59:50;-4.90;99.90
23267;DHT22;11802;53.160;8.214;2024-01-11T02:02:19;-4.90;99.90
23267;DHT22;11802;53.160;8.214;2024-01-11T02:04:45;-4.90;99.90
23267;DHT22;11802;53.160;8.214;2024-01-11T02:07:11;-4.90;99.90
23267;DHT22;11802;53.160;8.214;2024-01-11T02:09:37;-5.00;99.90
23267;DHT22;11802;53.160;8.214;2024-01-11T02:12:03;-5.00;99.90
23267;DHT22;11802;53.160;8.214;2024-01-11T02:14:28;-5.00;99.90
23267;DHT22;11802;53.160;8.214;2024-01-11T02:16:55;-5.00;99.90
23267;DHT22;11802;53.160;8.214;2024-01-11T02:19:20;-5.00;99.90
23267;DHT22;11802;53.160;8.214;2024-01-11T02:21:48;-5.00;99.90
23267;DHT22;11802;53.160;8.214;2024-01-11T02:24:15;-5.00;99.90
23267;DHT22;11802;53.160;8.214;2024-01-11T02:27:03;-5.00;99.90
23267;DHT22;11802;53.160;8.214;2024-01-11T02:29:29;-5.00;99.90
23267;DHT22;11802;53.160;8.214;2024-01-11T02:32:20;-5.00;99.90
23267;DHT22;11802;53.160;8.214;2024-01-11T02:34:46;-5.10;99.90
23267;DHT22;11802;53.160;8.214;2024-01-11T02:37:12;-5.10;99.90
23267;DHT22;11802;53.160;8.214;2024-01-11T02:39:38;-5.10;99.90
23267;DHT22;11802;53.160;8.214;2024-01-11T02:42:04;-5.10;99.90
23267;DHT22;11802;53.160;8.214;2024-01-11T02:44:30;-5.10;99.90
23267;DHT22;11802;53.160;8.214;2024-01-11T02:46:55;-5.10;99.90
23267;DHT22;11802;53.160;8.214;2024-01-11T02:49:21;-5.10;99.90
23267;DHT22;11802;53.160;8.214;2024-01-11T02:51:46;-5.10;99.90
23267;DHT22;11802;53.160;8.214;2024-01-11T02:54:12;-5.10;99.90
23267;DHT22;11802;53.160;8.214;2024-01-11T02:56:38;-5.10;99.90
23267;DHT22;11802;53.160;8.214;2024-01-11T02:59:03;-5.10;99.90
23267;DHT22;11802;53.160;8.214;2024-01-11T03:01:29;-5.10;99.90
23267;DHT22;11802;53.160;8.214;2024-01-11T03:03:55;-5.10;99.90
23267;DHT22;11802;53.160;8.214;2024-01-11T03:06:21;-5.10;99.90
23267;DHT22;11802;53.160;8.214;2024-01-11T03:08:50;-5.20;99.90
23267;DHT22;11802;53.160;8.214;2024-01-11T03:11:16;-5.30;99.90
23267;DHT22;11802;53.160;8.214;2024-01-11T03:13:42;-5.30;99.90
23267;DHT22;11802;53.160;8.214;2024-01-11T03:16:08;-5.30;99.90
23267;DHT22;11802;53.160;8.214;2024-01-11T03:18:33;-5.20;99.90
23267;DHT22;11802;53.160;8.214;2024-01-11T03:20:59;-5.30;99.90
23267;DHT22;11802;53.160;8.214;2024-01-11T03:23:24;-5.30;99.90
23267;DHT22;11802;53.160;8.214;2024-01-11T03:25:50;-5.30;99.90
23267;DHT22;11802;53.160;8.214;2024-01-11T03:28:15;-5.30;99.90
23267;DHT22;11802;53.160;8.214;2024-01-11T03:30:41;-5.20;99.90
23267;DHT22;11802;53.160;8.214;2024-01-11T03:33:08;-5.20;99.90
23267;DHT22;11802;53.160;8.214;2024-01-11T03:35:34;-5.20;99.90
23267;DHT22;11802;53.160;8.214;2024-01-11T03:37:59;-5.20;99.90
23267;DHT22;11802;53.160;8.214;2024-01-11T03:40:25;-5.10;99.90
23267;DHT22;11802;53.160;8.214;2024-01-11T03:42:51;-5.10;99.90
23267;DHT22;11802;53.160;8.214;2024-01-11T03:45:20;-5.10;99.90
23267;DHT22;11802;53.160;8.214;2024-01-11T03:47:45;-5.20;99.90
23267;DHT22;11802;53.160;8.214;2024-01-11T03:50:11;-5.20;99.90
23267;DHT22;11802;53.160;8.214;2024-01-11T03:52:37;-5.20;99.90
23267;DHT22;11802;53.160;8.214;2024-01-11T03:55:02;-5.20;99.90
23267;DHT22;11802;53.160;8.214;2024-01-11T03:57:28;-5.20;99.90
23267;DHT22;11802;53.160;8.214;2024-01-11T03:59:54;-5.10;99.90
23267;DHT22;11802;53.160;8.214;2024-01-11T04:02:19;-5.00;99.90
23267;DHT22;11802;53.160;8.214;2024-01-11T04:04:45;-5.00;99.90
23267;DHT22;11802;53.160;8.214;2024-01-11T04:07:10;-5.00;99.90
23267;DHT22;11802;53.160;8.214;2024-01-11T04:09:39;-4.90;99.90
23267;DHT22;11802;53.160;8.214;2024-01-11T04:12:05;-4.90;99.90
23267;DHT22;11802;53.160;8.214;2024-01-11T04:14:31;-4.80;99.90
23267;DHT22;11802;53.160;8.214;2024-01-11T04:16:57;-4.80;99.90
23267;DHT22;11802;53.160;8.214;2024-01-11T04:19:22;-4.80;99.90
23267;DHT22;11802;53.160;8.214;2024-01-11T04:21:48;-4.70;99.90
23267;DHT22;11802;53.160;8.214;2024-01-11T04:24:14;-4.70;99.90
23267;DHT22;11802;53.160;8.214;2024-01-11T04:26:39;-4.70;99.90
23267;DHT22;11802;53.160;8.214;2024-01-11T04:29:05;-4.60;99.90
23267;DHT22;11802;53.160;8.214;2024-01-11T04:31:30;-4.60;99.90
23267;DHT22;11802;53.160;8.214;2024-01-11T04:33:56;-4.60;99.90
23267;DHT22;11802;53.160;8.214;2024-01-11T04:36:22;-4.50;99.90
23267;DHT22;11802;53.160;8.214;2024-01-11T04:38:47;-4.50;99.90
23267;DHT22;11802;53.160;8.214;2024-01-11T04:41:14;-4.40;99.90
23267;DHT22;11802;53.160;8.214;2024-01-11T04:43:40;-4.40;99.90
23267;DHT22;11802;53.160;8.214;2024-01-11T04:46:20;-4.40;99.90
23267;DHT22;11802;53.160;8.214;2024-01-11T04:48:48;-4.40;99.90
23267;DHT22;11802;53.160;8.214;2024-01-11T04:51:17;-4.30;99.90
23267;DHT22;11802;53.160;8.214;2024-01-11T04:53:44;-4.30;99.90
23267;DHT22;11802;53.160;8.214;2024-01-11T04:56:13;-4.20;99.90
23267;DHT22;11802;53.160;8.214;2024-01-11T04:58:42;-4.20;99.90
23267;DHT22;11802;53.160;8.214;2024-01-11T05:01:15;-4.20;99.90
23267;DHT22;11802;53.160;8.214;2024-01-11T05:03:45;-4.10;99.90
23267;DHT22;11802;53.160;8.214;2024-01-11T05:06:19;-4.00;99.90
23267;DHT22;11802;53.160;8.214;2024-01-11T05:08:49;-4.00;99.90
23267;DHT22;11802;53.160;8.214;2024-01-11T05:11:18;-4.00;99.90
23267;DHT22;11802;53.160;8.214;2024-01-11T05:13:44;-3.90;99.90
23267;DHT22;11802;53.160;8.214;2024-01-11T05:16:20;-3.90;99.90
23267;DHT22;11802;53.160;8.214;2024-01-11T05:18:46;-3.90;99.90
23267;DHT22;11802;53.160;8.214;2024-01-11T05:21:11;-3.80;99.90
23267;DHT22;11802;53.160;8.214;2024-01-11T05:23:37;-3.80;99.90
23267;DHT22;11802;53.160;8.214;2024-01-11T05:26:03;-3.70;99.90
23267;DHT22;11802;53.160;8.214;2024-01-11T05:28:28;-3.60;99.90
23267;DHT22;11802;53.160;8.214;2024-01-11T05:30:54;-3.60;99.90
23267;DHT22;11802;53.160;8.214;2024-01-11T05:33:20;-3.50;99.90
23267;DHT22;11802;53.160;8.214;2024-01-11T05:35:46;-3.50;99.90
23267;DHT22;11802;53.160;8.214;2024-01-11T05:38:11;-3.50;99.90
23267;DHT22;11802;53.160;8.214;2024-01-11T05:40:37;-3.50;99.90
23267;DHT22;11802;53.160;8.214;2024-01-11T05:43:02;-3.50;99.90
23267;DHT22;11802;53.160;8.214;2024-01-11T05:45:28;-3.40;99.90
23267;DHT22;11802;53.160;8.214;2024-01-11T05:47:53;-3.30;99.90
23267;DHT22;11802;53.160;8.214;2024-01-11T05:50:19;-3.30;99.90
23267;DHT22;11802;53.160;8.214;2024-01-11T05:52:45;-3.30;99.90
23267;DHT22;11802;53.160;8.214;2024-01-11T05:55:10;-3.30;99.90
23267;DHT22;11802;53.160;8.214;2024-01-11T05:57:36;-3.30;99.90
23267;DHT22;11802;53.160;8.214;2024-01-11T06:00:03;-3.20;99.90
23267;DHT22;11802;53.160;8.214;2024-01-11T06:02:29;-3.20;99.90
23267;DHT22;11802;53.160;8.214;2024-01-11T06:04:56;-3.10;99.90
23267;DHT22;11802;53.160;8.214;2024-01-11T06:07:22;-3.10;99.90
23267;DHT22;11802;53.160;8.214;2024-01-11T06:09:48;-3.20;99.90
23267;DHT22;11802;53.160;8.214;2024-01-11T06:12:13;-3.10;99.90
23267;DHT22;11802;53.160;8.214;2024-01-11T06:14:39;-3.00;99.90
23267;DHT22;11802;53.160;8.214;2024-01-11T06:17:05;-2.90;99.90
23267;DHT22;11802;53.160;8.214;2024-01-11T06:19:30;-2.90;99.90
23267;DHT22;11802;53.160;8.214;2024-01-11T06:21:56;-2.90;99.90
23267;DHT22;11802;53.160;8.214;2024-01-11T06:24:21;-2.90;99.90
23267;DHT22;11802;53.160;8.214;2024-01-11T06:26:47;-2.80;99.90
23267;DHT22;11802;53.160;8.214;2024-01-11T06:29:12;-2.80;99.90
23267;DHT22;11802;53.160;8.214;2024-01-11T06:31:38;-2.80;99.90
23267;DHT22;11802;53.160;8.214;2024-01-11T06:34:03;-2.80;99.90
23267;DHT22;11802;53.160;8.214;2024-01-11T06:36:30;-2.80;99.90
23267;DHT22;11802;53.160;8.214;2024-01-11T06:38:55;-2.80;99.90
23267;DHT22;11802;53.160;8.214;2024-01-11T06:41:21;-2.80;99.90
23267;DHT22;11802;53.160;8.214;2024-01-11T06:43:46;-2.80;99.90
23267;DHT22;11802;53.160;8.214;2024-01-11T06:46:12;-2.70;99.90
23267;DHT22;11802;53.160;8.214;2024-01-11T06:48:38;-2.70;99.90
23267;DHT22;11802;53.160;8.214;2024-01-11T06:51:03;-2.70;99.90
23267;DHT22;11802;53.160;8.214;2024-01-11T06:53:29;-2.70;99.90
23267;DHT22;11802;53.160;8.214;2024-01-11T06:55:54;-2.50;99.90
23267;DHT22;11802;53.160;8.214;2024-01-11T06:58:20;-2.40;99.90
23267;DHT22;11802;53.160;8.214;2024-01-11T07:00:48;-2.40;99.90
23267;DHT22;11802;53.160;8.214;2024-01-11T07:03:15;-2.30;99.90
23267;DHT22;11802;53.160;8.214;2024-01-11T07:05:40;-2.30;99.90
23267;DHT22;11802;53.160;8.214;2024-01-11T07:08:06;-2.40;99.90
23267;DHT22;11802;53.160;8.214;2024-01-11T07:10:31;-2.40;99.90
23267;DHT22;11802;53.160;8.214;2024-01-11T07:12:57;-2.40;99.90
23267;DHT22;11802;53.160;8.214;2024-01-11T07:15:23;-2.40;99.90
23267;DHT22;11802;53.160;8.214;2024-01-11T07:17:49;-2.40;99.90
23267;DHT22;11802;53.160;8.214;2024-01-11T07:20:14;-2.50;99.90
23267;DHT22;11802;53.160;8.214;2024-01-11T07:22:42;-2.50;99.90
23267;DHT22;11802;53.160;8.214;2024-01-11T07:25:07;-2.40;99.90
23267;DHT22;11802;53.160;8.214;2024-01-11T07:27:33;-2.30;99.90
23267;DHT22;11802;53.160;8.214;2024-01-11T07:30:00;-2.30;99.90
23267;DHT22;11802;53.160;8.214;2024-01-11T07:32:27;-2.20;99.90
23267;DHT22;11802;53.160;8.214;2024-01-11T07:34:53;-2.40;99.90
23267;DHT22;11802;53.160;8.214;2024-01-11T07:37:18;-2.30;99.90
23267;DHT22;11802;53.160;8.214;2024-01-11T07:39:44;-2.40;99.90
23267;DHT22;11802;53.160;8.214;2024-01-11T07:42:10;-2.30;99.90
23267;DHT22;11802;53.160;8.214;2024-01-11T07:44:35;-2.30;99.90
23267;DHT22;11802;53.160;8.214;2024-01-11T07:47:01;-2.20;99.90
23267;DHT22;11802;53.160;8.214;2024-01-11T07:49:26;-2.10;99.90
23267;DHT22;11802;53.160;8.214;2024-01-11T07:51:52;-2.10;99.90
23267;DHT22;11802;53.160;8.214;2024-01-11T07:54:17;-2.10;99.90
23267;DHT22;11802;53.160;8.214;2024-01-11T07:56:43;-2.00;99.90
23267;DHT22;11802;53.160;8.214;2024-01-11T07:59:08;-2.00;99.90
23267;DHT22;11802;53.160;8.214;2024-01-11T08:01:38;-2.00;99.90
23267;DHT22;11802;53.160;8.214;2024-01-11T08:04:04;-1.90;99.90
23267;DHT22;11802;53.160;8.214;2024-01-11T08:06:30;-1.80;99.90
23267;DHT22;11802;53.160;8.214;2024-01-11T08:08:55;-1.80;99.90
23267;DHT22;11802;53.160;8.214;2024-01-11T08:11:21;-1.70;99.90
23267;DHT22;11802;53.160;8.214;2024-01-11T08:13:46;-1.70;99.90
23267;DHT22;11802;53.160;8.214;2024-01-11T08:16:18;-1.70;99.90
23267;DHT22;11802;53.160;8.214;2024-01-11T08:18:44;-1.60;99.90
23267;DHT22;11802;53.160;8.214;2024-01-11T08:21:11;-1.50;99.90
23267;DHT22;11802;53.160;8.214;2024-01-11T08:23:42;-1.40;99.90
23267;DHT22;11802;53.160;8.214;2024-01-11T08:26:14;-1.30;99.90
23267;DHT22;11802;53.160;8.214;2024-01-11T08:28:40;-1.30;99.90
23267;DHT22;11802;53.160;8.214;2024-01-11T08:31:07;-1.20;99.90
23267;DHT22;11802;53.160;8.214;2024-01-11T08:33:33;-1.10;99.90
23267;DHT22;11802;53.160;8.214;2024-01-11T08:35:58;-1.00;99.90
23267;DHT22;11802;53.160;8.214;2024-01-11T08:38:24;-0.90;99.90
23267;DHT22;11802;53.160;8.214;2024-01-11T08:40:50;-0.80;99.90
23267;DHT22;11802;53.160;8.214;2024-01-11T08:43:16;-0.90;99.90
23267;DHT22;11802;53.160;8.214;2024-01-11T08:45:41;-0.80;99.90
23267;DHT22;11802;53.160;8.214;2024-01-11T08:48:08;-0.70;99.90
23267;DHT22;11802;53.160;8.214;2024-01-11T08:50:35;-0.60;99.90
23267;DHT22;11802;53.160;8.214;2024-01-11T08:53:00;-0.50;99.90
23267;DHT22;11802;53.160;8.214;2024-01-11T08:55:27;-0.50;99.90
23267;DHT22;11802;53.160;8.214;2024-01-11T08:57:53;-0.50;99.90
23267;DHT22;11802;53.160;8.214;2024-01-11T09:00:18;-0.40;99.90
23267;DHT22;11802;53.160;8.214;2024-01-11T09:02:44;-0.40;99.90
23267;DHT22;11802;53.160;8.214;2024-01-11T09:05:11;-0.40;99.90
23267;DHT22;11802;53.160;8.214;2024-01-11T09:07:36;-0.40;99.90
23267;DHT22;11802;53.160;8.214;2024-01-11T09:10:03;-0.40;99.90
23267;DHT22;11802;53.160;8.214;2024-01-11T09:12:28;-0.30;99.90
23267;DHT22;11802;53.160;8.214;2024-01-11T09:14:54;-0.30;99.90
23267;DHT22;11802;53.160;8.214;2024-01-11T09:17:20;-0.10;99.90
23267;DHT22;11802;53.160;8.214;2024-01-11T09:19:46;0.00;99.90
23267;DHT22;11802;53.160;8.214;2024-01-11T09:22:12;0.10;99.90
23267;DHT22;11802;53.160;8.214;2024-01-11T09:24:38;0.10;99.90
23267;DHT22;11802;53.160;8.214;2024-01-11T09:27:03;0.20;99.90
23267;DHT22;11802;53.160;8.214;2024-01-11T09:29:32;0.20;99.90
23267;DHT22;11802;53.160;8.214;2024-01-11T09:31:59;0.20;99.90
23267;DHT22;11802;53.160;8.214;2024-01-11T09:34:25;0.30;99.90
23267;DHT22;11802;53.160;8.214;2024-01-11T09:36:50;0.30;99.90
23267;DHT22;11802;53.160;8.214;2024-01-11T09:39:16;0.30;99.90
23267;DHT22;11802;53.160;8.214;2024-01-11T09:41:46;0.30;99.90
23267;DHT22;11802;53.160;8.214;2024-01-11T09:44:15;0.40;99.90
23267;DHT22;11802;53.160;8.214;2024-01-11T09:46:41;0.50;99.90
23267;DHT22;11802;53.160;8.214;2024-01-11T09:49:07;0.50;99.90
23267;DHT22;11802;53.160;8.214;2024-01-11T09:51:34;0.60;99.90
23267;DHT22;11802;53.160;8.214;2024-01-11T09:54:03;0.60;99.90
23267;DHT22;11802;53.160;8.214;2024-01-11T09:56:28;0.60;99.90
23267;DHT22;11802;53.160;8.214;2024-01-11T09:58:54;0.60;99.90
23267;DHT22;11802;53.160;8.214;2024-01-11T10:01:20;0.70;99.90
23267;DHT22;11802;53.160;8.214;2024-01-11T10:03:46;0.70;99.90
23267;DHT22;11802;53.160;8.214;2024-01-11T10:06:12;0.80;99.90
23267;DHT22;11802;53.160;8.214;2024-01-11T10:08:39;0.70;99.90
23267;DHT22;11802;53.160;8.214;2024-01-11T10:11:04;0.80;99.90
23267;DHT22;11802;53.160;8.214;2024-01-11T10:13:31;0.90;99.90
23267;DHT22;11802;53.160;8.214;2024-01-11T10:16:11;0.90;99.90
23267;DHT22;11802;53.160;8.214;2024-01-11T10:18:39;1.00;99.90
23267;DHT22;11802;53.160;8.214;2024-01-11T10:21:05;1.00;99.90
23267;DHT22;11802;53.160;8.214;2024-01-11T10:23:33;1.00;99.90
23267;DHT22;11802;53.160;8.214;2024-01-11T10:26:00;0.90;99.90
23267;DHT22;11802;53.160;8.214;2024-01-11T10:28:26;1.00;99.90
23267;DHT22;11802;53.160;8.214;2024-01-11T10:30:52;1.10;99.90
23267;DHT22;11802;53.160;8.214;2024-01-11T10:33:21;1.20;99.90
23267;DHT22;11802;53.160;8.214;2024-01-11T10:35:48;1.30;99.90
23267;DHT22;11802;53.160;8.214;2024-01-11T10:38:14;1.30;99.90
23267;DHT22;11802;53.160;8.214;2024-01-11T10:40:41;1.20;99.90
23267;DHT22;11802;53.160;8.214;2024-01-11T10:43:09;1.20;99.90
23267;DHT22;11802;53.160;8.214;2024-01-11T10:45:37;1.20;99.90
23267;DHT22;11802;53.160;8.214;2024-01-11T10:48:07;1.20;99.90
23267;DHT22;11802;53.160;8.214;2024-01-11T10:50:37;1.20;99.90
23267;DHT22;11802;53.160;8.214;2024-01-11T10:53:36;1.30;99.90
23267;DHT22;11802;53.160;8.214;2024-01-11T10:56:05;1.30;99.90
23267;DHT22;11802;53.160;8.214;2024-01-11T10:58:33;1.30;99.90
23267;DHT22;11802;53.160;8.214;2024-01-11T11:01:00;1.50;99.90
23267;DHT22;11802;53.160;8.214;2024-01-11T11:03:27;1.50;99.90
23267;DHT22;11802;53.160;8.214;2024-01-11T11:05:54;1.60;99.90
23267;DHT22;11802;53.160;8.214;2024-01-11T11:08:23;1.60;99.90
23267;DHT22;11802;53.160;8.214;2024-01-11T11:10:53;1.70;99.90
23267;DHT22;11802;53.160;8.214;2024-01-11T11:13:21;1.80;99.90
23267;DHT22;11802;53.160;8.214;2024-01-11T11:15:48;1.90;99.90
23267;DHT22;11802;53.160;8.214;2024-01-11T11:18:14;1.80;99.90
23267;DHT22;11802;53.160;8.214;2024-01-11T11:20:41;1.90;99.90
23267;DHT22;11802;53.160;8.214;2024-01-11T11:23:08;1.90;99.90
23267;DHT22;11802;53.160;8.214;2024-01-11T11:25:40;1.90;99.90
23267;DHT22;11802;53.160;8.214;2024-01-11T11:28:06;1.90;99.90
23267;DHT22;11802;53.160;8.214;2024-01-11T11:30:33;2.00;99.90
23267;DHT22;11802;53.160;8.214;2024-01-11T11:35:46;2.00;99.90
23267;DHT22;11802;53.160;8.214;2024-01-11T11:38:17;2.10;99.90
23267;DHT22;11802;53.160;8.214;2024-01-11T11:40:46;2.10;99.90
23267;DHT22;11802;53.160;8.214;2024-01-11T11:43:12;2.10;99.90
23267;DHT22;11802;53.160;8.214;2024-01-11T11:45:40;2.10;99.90
23267;DHT22;11802;53.160;8.214;2024-01-11T11:51:09;2.10;99.90
23267;DHT22;11802;53.160;8.214;2024-01-11T11:53:36;2.10;99.90
23267;DHT22;11802;53.160;8.214;2024-01-11T11:56:02;2.20;99.90
23267;DHT22;11802;53.160;8.214;2024-01-11T11:58:29;2.20;99.90
23267;DHT22;11802;53.160;8.214;2024-01-11T12:00:58;2.20;99.90
23267;DHT22;11802;53.160;8.214;2024-01-11T12:03:32;2.20;99.90
23267;DHT22;11802;53.160;8.214;2024-01-11T12:06:15;2.20;99.90
23267;DHT22;11802;53.160;8.214;2024-01-11T12:09:08;2.20;99.90
23267;DHT22;11802;53.160;8.214;2024-01-11T12:11:52;2.20;99.90
23267;DHT22;11802;53.160;8.214;2024-01-11T12:14:17;2.20;99.90
23267;DHT22;11802;53.160;8.214;2024-01-11T12:16:43;2.20;99.90
23267;DHT22;11802;53.160;8.214;2024-01-11T12:19:09;2.20;99.90
23267;DHT22;11802;53.160;8.214;2024-01-11T12:21:35;2.20;99.90
23267;DHT22;11802;53.160;8.214;2024-01-11T12:24:00;2.30;99.90
23267;DHT22;11802;53.160;8.214;2024-01-11T12:26:26;2.30;99.90
23267;DHT22;11802;53.160;8.214;2024-01-11T12:28:52;2.20;99.90
23267;DHT22;11802;53.160;8.214;2024-01-11T12:31:18;2.20;99.90
23267;DHT22;11802;53.160;8.214;2024-01-11T12:33:45;2.20;99.90
23267;DHT22;11802;53.160;8.214;2024-01-11T12:36:11;2.30;99.90
23267;DHT22;11802;53.160;8.214;2024-01-11T12:38:36;2.30;99.90
23267;DHT22;11802;53.160;8.214;2024-01-11T12:41:02;2.30;99.90
23267;DHT22;11802;53.160;8.214;2024-01-11T12:43:29;2.20;99.90
23267;DHT22;11802;53.160;8.214;2024-01-11T12:45:55;2.30;99.90
23267;DHT22;11802;53.160;8.214;2024-01-11T12:48:20;2.30;99.90
23267;DHT22;11802;53.160;8.214;2024-01-11T12:50:46;2.30;99.90
23267;DHT22;11802;53.160;8.214;2024-01-11T12:53:13;2.30;99.90
23267;DHT22;11802;53.160;8.214;2024-01-11T12:55:49;2.40;99.90
23267;DHT22;11802;53.160;8.214;2024-01-11T12:58:20;2.40;99.90
23267;DHT22;11802;53.160;8.214;2024-01-11T13:00:50;2.40;99.90
23267;DHT22;11802;53.160;8.214;2024-01-11T13:03:17;2.40;99.90
23267;DHT22;11802;53.160;8.214;2024-01-11T13:05:45;2.40;99.90
23267;DHT22;11802;53.160;8.214;2024-01-11T13:08:10;2.40;99.90
23267;DHT22;11802;53.160;8.214;2024-01-11T13:10:36;2.40;99.90
23267;DHT22;11802;53.160;8.214;2024-01-11T13:13:04;2.40;99.90
23267;DHT22;11802;53.160;8.214;2024-01-11T13:15:31;2.40;99.90
23267;DHT22;11802;53.160;8.214;2024-01-11T13:18:00;2.40;99.90
23267;DHT22;11802;53.160;8.214;2024-01-11T13:20:25;2.50;99.90
23267;DHT22;11802;53.160;8.214;2024-01-11T13:25:36;2.60;99.90
23267;DHT22;11802;53.160;8.214;2024-01-11T13:28:02;2.70;99.90
23267;DHT22;11802;53.160;8.214;2024-01-11T13:30:28;2.70;99.90
23267;DHT22;11802;53.160;8.214;2024-01-11T13:32:53;2.70;99.90
23267;DHT22;11802;53.160;8.214;2024-01-11T13:35:19;2.70;99.90
23267;DHT22;11802;53.160;8.214;2024-01-11T13:37:45;2.80;99.90
23267;DHT22;11802;53.160;8.214;2024-01-11T13:40:11;2.80;99.90
23267;DHT22;11802;53.160;8.214;2024-01-11T13:42:39;2.70;99.90
23267;DHT22;11802;53.160;8.214;2024-01-11T13:45:05;2.70;99.90
23267;DHT22;11802;53.160;8.214;2024-01-11T13:47:34;2.70;99.90
23267;DHT22;11802;53.160;8.214;2024-01-11T13:50:00;2.70;99.90
23267;DHT22;11802;53.160;8.214;2024-01-11T13:52:25;2.70;99.90
23267;DHT22;11802;53.160;8.214;2024-01-11T13:54:51;2.70;99.90
23267;DHT22;11802;53.160;8.214;2024-01-11T13:57:16;2.80;99.90
23267;DHT22;11802;53.160;8.214;2024-01-11T13:59:42;2.80;99.90
23267;DHT22;11802;53.160;8.214;2024-01-11T14:02:07;2.90;99.90
23267;DHT22;11802;53.160;8.214;2024-01-11T14:04:33;2.80;99.90
23267;DHT22;11802;53.160;8.214;2024-01-11T14:07:00;2.90;99.90
23267;DHT22;11802;53.160;8.214;2024-01-11T14:09:25;2.90;99.90
23267;DHT22;11802;53.160;8.214;2024-01-11T14:11:51;2.80;99.90
23267;DHT22;11802;53.160;8.214;2024-01-11T14:14:18;2.80;99.90
23267;DHT22;11802;53.160;8.214;2024-01-11T14:16:46;2.70;99.90
23267;DHT22;11802;53.160;8.214;2024-01-11T14:19:11;2.80;99.90
23267;DHT22;11802;53.160;8.214;2024-01-11T14:21:37;2.70;99.90
23267;DHT22;11802;53.160;8.214;2024-01-11T14:24:06;2.70;99.90
23267;DHT22;11802;53.160;8.214;2024-01-11T14:26:32;2.70;99.90
23267;DHT22;11802;53.160;8.214;2024-01-11T14:29:00;2.70;99.90
23267;DHT22;11802;53.160;8.214;2024-01-11T14:31:27;2.70;99.90
23267;DHT22;11802;53.160;8.214;2024-01-11T14:33:52;2.60;99.90
23267;DHT22;11802;53.160;8.214;2024-01-11T14:36:18;2.70;99.90
23267;DHT22;11802;53.160;8.214;2024-01-11T14:38:43;2.60;99.90
23267;DHT22;11802;53.160;8.214;2024-01-11T14:41:09;2.60;99.90
23267;DHT22;11802;53.160;8.214;2024-01-11T14:43:35;2.60;99.90
23267;DHT22;11802;53.160;8.214;2024-01-11T14:46:01;2.60;99.90
23267;DHT22;11802;53.160;8.214;2024-01-11T14:48:27;2.60;99.90
23267;DHT22;11802;53.160;8.214;2024-01-11T14:50:56;2.60;99.90
23267;DHT22;11802;53.160;8.214;2024-01-11T14:53:22;2.70;99.90
23267;DHT22;11802;53.160;8.214;2024-01-11T14:55:48;2.60;99.90
23267;DHT22;11802;53.160;8.214;2024-01-11T14:58:14;2.60;99.90
23267;DHT22;11802;53.160;8.214;2024-01-11T15:00:40;2.60;99.90
23267;DHT22;11802;53.160;8.214;2024-01-11T15:03:06;2.50;99.90
23267;DHT22;11802;53.160;8.214;2024-01-11T15:05:31;2.50;99.90
23267;DHT22;11802;53.160;8.214;2024-01-11T15:07:57;2.50;99.90
23267;DHT22;11802;53.160;8.214;2024-01-11T15:10:23;2.50;99.90
23267;DHT22;11802;53.160;8.214;2024-01-11T15:12:48;2.50;99.90
23267;DHT22;11802;53.160;8.214;2024-01-11T15:15:14;2.50;99.90
23267;DHT22;11802;53.160;8.214;2024-01-11T15:17:39;2.40;99.90
23267;DHT22;11802;53.160;8.214;2024-01-11T15:20:06;2.50;99.90
23267;DHT22;11802;53.160;8.214;2024-01-11T15:22:32;2.60;99.90
23267;DHT22;11802;53.160;8.214;2024-01-11T15:24:57;2.50;99.90
23267;DHT22;11802;53.160;8.214;2024-01-11T15:27:23;2.60;99.90
23267;DHT22;11802;53.160;8.214;2024-01-11T15:29:49;2.50;99.90
23267;DHT22;11802;53.160;8.214;2024-01-11T15:32:16;2.50;99.90
23267;DHT22;11802;53.160;8.214;2024-01-11T15:34:41;2.50;99.90
23267;DHT22;11802;53.160;8.214;2024-01-11T15:37:07;2.50;99.90
23267;DHT22;11802;53.160;8.214;2024-01-11T15:39:33;2.50;99.90
23267;DHT22;11802;53.160;8.214;2024-01-11T15:41:59;2.50;99.90